createdAt,value
2022-08-17T00:03:17.277Z,17.443848
2022-08-17T00:06:41.541Z,17.433777
2022-08-17T00:10:06.755Z,17.433777
2022-08-17T00:13:31.948Z,17.413635
2022-08-17T00:16:57.762Z,17.403564
2022-08-17T00:20:23.303Z,17.433777
2022-08-17T00:23:47.880Z,17.403564
2022-08-17T00:27:12.728Z,17.463989
2022-08-17T00:30:51.426Z,17.514343
2022-08-17T00:34:03.143Z,17.514343
2022-08-17T00:37:28.328Z,17.564697
2022-08-17T00:40:55.708Z,17.514343
2022-08-17T00:44:18.745Z,17.463989
2022-08-17T00:47:43.963Z,17.463989
2022-08-17T00:51:09.165Z,17.463989
2022-08-17T00:54:41.065Z,17.433777
2022-08-17T00:57:59.563Z,17.433777
2022-08-17T01:01:24.791Z,17.363281
2022-08-17T01:04:49.986Z,17.282715
2022-08-17T01:08:15.189Z,17.252502
2022-08-17T01:11:40.415Z,17.22229
2022-08-17T01:15:05.646Z,17.192078
2022-08-17T01:18:30.854Z,17.151794
2022-08-17T01:21:56.071Z,17.071228
2022-08-17T01:25:21.275Z,17.000732
2022-08-17T01:28:53.306Z,16.960449
2022-08-17T01:32:11.706Z,16.960449
2022-08-17T01:35:36.937Z,16.940308
2022-08-17T01:39:02.144Z,16.960449
2022-08-17T01:42:27.357Z,16.980591
2022-08-17T01:46:02.398Z,16.930237
2022-08-17T01:49:17.813Z,16.889954
2022-08-17T01:52:43.123Z,16.889954
2022-08-17T01:56:08.263Z,16.910095
2022-08-17T01:59:33.502Z,17.000732
2022-08-17T02:02:58.764Z,17.071228
2022-08-17T02:06:27.318Z,17.061157
2022-08-17T02:09:49.379Z,16.97052
2022-08-17T02:13:14.413Z,16.930237
2022-08-17T02:16:39.609Z,16.879883
2022-08-17T02:20:04.804Z,16.84967
2022-08-17T02:23:30.015Z,16.930237
2022-08-17T02:26:55.265Z,16.940308
2022-08-17T02:30:30.900Z,16.940308
2022-08-17T02:33:45.688Z,16.859741
2022-08-17T02:37:10.899Z,16.789246
2022-08-17T02:40:36.762Z,16.809387
2022-08-17T02:44:01.403Z,16.789246
2022-08-17T02:47:26.643Z,16.759033
2022-08-17T02:50:51.893Z,16.748962
2022-08-17T02:54:39.522Z,16.668396
2022-08-17T02:57:42.309Z,16.658325
2022-08-17T03:01:07.533Z,16.638184
2022-08-17T03:04:34.903Z,16.658325
2022-08-17T03:07:57.976Z,16.658325
2022-08-17T03:11:23.232Z,16.577759
2022-08-17T03:14:48.466Z,16.567688
2022-08-17T03:18:18.867Z,16.638184
2022-08-17T03:21:38.948Z,16.668396
2022-08-17T03:25:04.122Z,16.779175
2022-08-17T03:28:29.375Z,16.759033
2022-08-17T03:31:54.653Z,16.779175
2022-08-17T03:35:19.853Z,16.748962
2022-08-17T03:38:45.155Z,16.728821
2022-08-17T03:42:14.290Z,16.678467
2022-08-17T03:45:35.564Z,16.668396
2022-08-17T03:49:00.800Z,16.628113
2022-08-17T03:52:26.022Z,16.628113
2022-08-17T03:55:51.299Z,16.638184
2022-08-17T03:59:20.935Z,16.708679
2022-08-17T04:02:41.787Z,16.698608
2022-08-17T04:06:07.010Z,16.748962
2022-08-17T04:09:32.221Z,16.708679
2022-08-17T04:12:57.435Z,16.698608
2022-08-17T04:16:22.669Z,16.668396
2022-08-17T04:19:59.406Z,16.678467
2022-08-17T04:23:24.664Z,16.748962
2022-08-17T04:26:53.545Z,16.819458
2022-08-17T04:30:15.112Z,16.859741
2022-08-17T04:33:40.328Z,16.859741
2022-08-17T04:37:05.625Z,16.859741
2022-08-17T04:40:30.832Z,16.930237
2022-08-17T04:43:56.051Z,16.940308
2022-08-17T04:47:21.321Z,17.000732
2022-08-17T04:50:46.593Z,17.071228
2022-08-17T04:54:11.790Z,17.232361
2022-08-17T04:57:37.742Z,17.34314
2022-08-17T05:01:02.298Z,17.494202
2022-08-17T05:04:33.369Z,17.584839
2022-08-17T05:07:52.712Z,17.705688
2022-08-17T05:11:17.982Z,17.786255
2022-08-17T05:14:43.156Z,17.85675
2022-08-17T05:18:08.389Z,17.866821
2022-08-17T05:21:33.603Z,17.917175
2022-08-17T05:24:58.828Z,17.897034
2022-08-17T05:28:24.270Z,17.987671
2022-08-17T05:31:49.241Z,18.068237
2022-08-17T05:35:14.459Z,18.179016
2022-08-17T05:38:39.675Z,18.299866
2022-08-17T05:42:04.901Z,18.440857
2022-08-17T05:45:54.975Z,18.521423
2022-08-17T05:48:55.323Z,18.581848
2022-08-17T05:52:20.542Z,18.722839
2022-08-17T05:55:45.780Z,18.843689
2022-08-17T05:59:11.012Z,18.924255
2022-08-17T06:02:36.206Z,19.024963
2022-08-17T06:06:01.439Z,19.125671
2022-08-17T06:09:30.243Z,19.306946
2022-08-17T06:12:52.034Z,19.498291
2022-08-17T06:16:26.126Z,19.73999
2022-08-17T06:19:42.355Z,19.961548
2022-08-17T06:23:07.601Z,20.173035
2022-08-17T06:26:34.548Z,20.36438
2022-08-17T06:29:58.122Z,20.565796
2022-08-17T06:33:23.307Z,20.847778
2022-08-17T06:36:48.567Z,21.190186
2022-08-17T06:40:13.799Z,21.401672
2022-08-17T06:43:38.978Z,21.462097
2022-08-17T06:47:04.178Z,21.522522
2022-08-17T06:50:29.395Z,21.562805
2022-08-17T06:53:54.628Z,21.582947
2022-08-17T06:57:19.826Z,21.653442
2022-08-17T07:00:45.088Z,21.713867
2022-08-17T07:04:11.728Z,21.74408
2022-08-17T07:07:35.418Z,21.824646
2022-08-17T07:11:00.669Z,21.804504
2022-08-17T07:14:25.883Z,21.794434
2022-08-17T07:17:51.114Z,21.804504
2022-08-17T07:21:18.062Z,21.844788
2022-08-17T07:24:41.571Z,21.895142
2022-08-17T07:28:06.892Z,21.875
2022-08-17T07:31:32.021Z,21.895142
2022-08-17T07:34:57.997Z,21.875
2022-08-17T07:38:24.624Z,21.915283
2022-08-17T07:41:53.681Z,22.056274
2022-08-17T07:45:13.686Z,22.146912
2022-08-17T07:48:39.011Z,22.146912
2022-08-17T07:52:13.423Z,22.398682
2022-08-17T07:55:29.530Z,22.600098
2022-08-17T07:58:54.715Z,22.700806
2022-08-17T08:02:20.039Z,22.76123
2022-08-17T08:05:49.619Z,22.861938
2022-08-17T08:09:10.352Z,23.053284
2022-08-17T08:12:35.546Z,23.234558
2022-08-17T08:16:00.760Z,23.234558
2022-08-17T08:19:25.972Z,23.395691
2022-08-17T08:22:51.166Z,23.476257
2022-08-17T08:26:18.530Z,23.657532
2022-08-17T08:29:41.622Z,23.748169
2022-08-17T08:33:06.813Z,23.848877
2022-08-17T08:36:57.270Z,23.838806
2022-08-17T08:39:57.257Z,23.949585
2022-08-17T08:43:22.413Z,24.120789
2022-08-17T08:46:47.674Z,24.281921
2022-08-17T08:50:30.394Z,24.352417
2022-08-17T08:53:38.077Z,24.201355
2022-08-17T09:00:28.453Z,24.211426
2022-08-17T09:03:53.979Z,24.090576
2022-08-17T09:07:18.847Z,24.080505
2022-08-17T09:10:44.176Z,24.100647
2022-08-17T09:14:21.934Z,24.201355
2022-08-17T09:17:34.444Z,24.221497
2022-08-17T09:20:59.660Z,24.281921
2022-08-17T09:24:24.847Z,24.402771
2022-08-17T09:27:50.138Z,24.654541
2022-08-17T09:31:15.246Z,24.89624
2022-08-17T09:34:40.414Z,25.178223
2022-08-17T09:38:05.624Z,25.359497
2022-08-17T09:41:30.815Z,25.329285
2022-08-17T09:44:55.995Z,25.278931
2022-08-17T09:48:21.180Z,25.238647
2022-08-17T09:51:46.374Z,25.238647
2022-08-17T09:55:11.727Z,25.278931
2022-08-17T09:58:36.988Z,25.39978
2022-08-17T10:02:02.175Z,25.460205
2022-08-17T10:05:27.421Z,25.570984
2022-08-17T10:08:52.630Z,25.722046
2022-08-17T10:12:17.915Z,25.802612
2022-08-17T10:15:43.003Z,25.943604
2022-08-17T10:19:08.343Z,26.074524
2022-08-17T10:22:35.447Z,26.175232
2022-08-17T10:25:58.714Z,26.296082
2022-08-17T10:29:23.900Z,26.286011
2022-08-17T10:32:49.095Z,26.316223
2022-08-17T10:36:14.325Z,26.386719
2022-08-17T10:39:50.649Z,26.517639
2022-08-17T10:43:04.745Z,26.618347
2022-08-17T10:46:31.749Z,26.668701
2022-08-17T10:49:55.178Z,26.759338
2022-08-17T10:53:20.529Z,26.940613
2022-08-17T10:56:45.733Z,27.142029
2022-08-17T11:00:10.936Z,27.363586
2022-08-17T11:03:36.139Z,27.41394
2022-08-17T11:07:01.360Z,27.373657
2022-08-17T11:10:26.587Z,27.393799
2022-08-17T11:13:51.767Z,27.40387
2022-08-17T11:17:16.979Z,27.40387
2022-08-17T11:20:42.212Z,27.504578
2022-08-17T11:24:07.415Z,27.685852
2022-08-17T11:27:32.646Z,27.716064
2022-08-17T11:30:57.902Z,27.565002
2022-08-17T11:34:23.101Z,27.313232
2022-08-17T11:37:48.431Z,27.142029
2022-08-17T11:41:13.677Z,27.001038
2022-08-17T11:44:38.915Z,26.839905
2022-08-17T11:48:26.933Z,26.698914
2022-08-17T11:51:29.353Z,26.628418
2022-08-17T11:55:00.247Z,26.567993
2022-08-17T11:58:19.832Z,26.537781
2022-08-17T12:01:45.147Z,26.598206
2022-08-17T12:05:11.892Z,26.719055
2022-08-17T12:08:35.671Z,26.870117
2022-08-17T12:12:12.309Z,27.041321
2022-08-17T12:15:26.217Z,27.272949
2022-08-17T12:18:51.430Z,27.40387
2022-08-17T12:22:16.636Z,27.494507
2022-08-17T12:25:41.850Z,27.615356
2022-08-17T12:29:07.130Z,27.66571
2022-08-17T12:32:32.360Z,27.816772
2022-08-17T12:35:59.522Z,27.897339
2022-08-17T12:39:22.786Z,27.877197
2022-08-17T12:42:48.104Z,27.927551
2022-08-17T12:46:15.372Z,28.16925
2022-08-17T12:49:38.500Z,28.340454
2022-08-17T12:53:03.813Z,28.511658
2022-08-17T12:56:39.068Z,28.612366
2022-08-17T13:00:15.854Z,28.622437
2022-08-17T13:03:41.156Z,28.582153
2022-08-17T13:07:06.366Z,28.672791
2022-08-17T13:10:32.958Z,28.682861
2022-08-17T13:13:56.881Z,28.682861
2022-08-17T13:17:22.227Z,28.783569
2022-08-17T13:20:47.510Z,28.934631
2022-08-17T13:24:12.775Z,28.964844
2022-08-17T13:27:38.086Z,28.743286
2022-08-17T13:31:03.291Z,28.521729
2022-08-17T13:34:28.482Z,28.400879
2022-08-17T13:37:53.709Z,28.441162
2022-08-17T13:41:18.939Z,28.491516
2022-08-17T13:44:59.728Z,28.461304
2022-08-17T13:48:24.942Z,28.491516
2022-08-17T13:51:50.187Z,28.511658
2022-08-17T13:55:15.364Z,28.491516
2022-08-17T13:58:40.609Z,28.511658
2022-08-17T14:02:05.973Z,28.562012
2022-08-17T14:05:31.037Z,28.562012
2022-08-17T14:08:56.279Z,28.491516
2022-08-17T14:12:21.493Z,28.41095
2022-08-17T14:15:53.705Z,28.370667
2022-08-17T14:19:11.969Z,28.219604
2022-08-17T14:22:37.148Z,28.179321
2022-08-17T14:26:02.499Z,28.189392
2022-08-17T14:29:27.689Z,28.179321
2022-08-17T15:05:20.148Z,27.464294
2022-08-17T15:08:45.363Z,27.343445
2022-08-17T15:12:10.592Z,27.28302
2022-08-17T15:15:35.788Z,27.222595
2022-08-17T15:19:01.004Z,27.212524
2022-08-17T15:22:26.230Z,27.212524
2022-08-17T15:25:51.443Z,27.182312
2022-08-17T15:29:16.645Z,27.121887
2022-08-17T15:32:45.890Z,27.142029
2022-08-17T15:36:07.072Z,27.091675
2022-08-17T15:39:32.314Z,27.041321
2022-08-17T15:42:57.489Z,26.970825
2022-08-17T15:46:22.703Z,26.970825
2022-08-17T15:49:47.896Z,26.9104
2022-08-17T15:53:14.197Z,26.870117
2022-08-17T15:56:38.312Z,26.809692
2022-08-17T16:00:03.523Z,26.759338
2022-08-17T16:03:46.527Z,26.719055
2022-08-17T16:06:54.048Z,26.729126
2022-08-17T16:10:19.606Z,26.688843
2022-08-17T16:13:47.437Z,26.668701
2022-08-17T16:17:39.333Z,26.64856
2022-08-17T16:20:34.900Z,26.618347
2022-08-17T16:24:00.127Z,26.618347
2022-08-17T16:27:25.349Z,26.567993
2022-08-17T17:34:55.144Z,25.873108
2022-08-17T18:14:04.308Z,25.027161
